Time;durP1;ratioP1;P1;durP2;ratioP2;P2;SDS_P1;SDS_P2;PMS_P1;PMS_P2;Temp;Humidity;BMP_temperature;BMP_pressure;BME280_temperature;BME280_humidity;BME280_pressure;Samples;Min_cycle;Max_cycle;Signal;HPM_P1;HPM_P2
2022/07/05 00:01:36;;;;;;;;;;;28.80;47.70;;;;;;5012360;28;19909;-69
2022/07/05 00:04:02;;;;;;;;;;;28.90;47.70;;;;;;5012123;28;19953;-69
2022/07/05 00:06:27;;;;;;;;;;;28.90;47.50;;;;;;5012798;28;19914;-61
2022/07/05 00:08:53;;;;;;;;;;;28.90;47.40;;;;;;5012150;28;19933;-68
2022/07/05 00:11:18;;;;;;;;;;;28.90;47.40;;;;;;5012115;28;19920;-69
2022/07/05 00:13:44;;;;;;;;;;;28.80;47.50;;;;;;5012184;28;19917;-68
2022/07/05 00:16:09;;;;;;;;;;;28.80;47.40;;;;;;5012143;28;19998;-66
2022/07/05 00:18:35;;;;;;;;;;;28.80;47.20;;;;;;5011347;28;19913;-70
2022/07/05 00:21:01;;;;;;;;;;;28.80;47.60;;;;;;5012168;28;19917;-68
2022/07/05 00:23:26;;;;;;;;;;;28.70;48.10;;;;;;5012204;28;19909;-68
2022/07/05 00:25:52;;;;;;;;;;;28.70;48.20;;;;;;5012158;28;20316;-69
2022/07/05 00:28:18;;;;;;;;;;;28.60;48.20;;;;;;5011960;28;19913;-70
2022/07/05 00:30:43;;;;;;;;;;;28.60;48.50;;;;;;5012104;28;19996;-67
2022/07/05 00:33:09;;;;;;;;;;;28.50;48.20;;;;;;5011991;28;19921;-69
2022/07/05 00:35:34;;;;;;;;;;;28.50;48.80;;;;;;5012082;28;19917;-66
2022/07/05 00:38:00;;;;;;;;;;;28.50;48.70;;;;;;5011932;28;19960;-69
2022/07/05 00:40:25;;;;;;;;;;;28.60;48.50;;;;;;5012030;28;19914;-71
2022/07/05 00:42:51;;;;;;;;;;;28.50;48.80;;;;;;5012033;28;19914;-71
2022/07/05 00:45:17;;;;;;;;;;;28.40;48.90;;;;;;5011687;28;20372;-68
2022/07/05 00:47:43;;;;;;;;;;;28.50;48.80;;;;;;5011972;28;19917;-69
2022/07/05 00:50:08;;;;;;;;;;;28.40;49.30;;;;;;5011791;28;19975;-65
2022/07/05 00:52:34;;;;;;;;;;;28.40;48.50;;;;;;5011950;28;19996;-68
2022/07/05 00:55:00;;;;;;;;;;;28.50;48.40;;;;;;5011490;28;20012;-69
2022/07/05 00:57:26;;;;;;;;;;;28.50;48.30;;;;;;5011863;28;20004;-70
2022/07/05 00:59:51;;;;;;;;;;;28.50;48.30;;;;;;5011958;28;19917;-68
2022/07/05 01:02:19;;;;;;;;;;;28.30;48.80;;;;;;5011787;28;19913;-69
2022/07/05 01:04:46;;;;;;;;;;;28.30;49.10;;;;;;5011711;28;19961;-70
2022/07/05 01:07:11;;;;;;;;;;;28.20;49.20;;;;;;5011660;28;19917;-68
2022/07/05 01:09:37;;;;;;;;;;;28.30;49.10;;;;;;5011667;28;19921;-69
2022/07/05 01:12:03;;;;;;;;;;;28.30;48.80;;;;;;5011590;28;19975;-66
2022/07/05 01:14:29;;;;;;;;;;;28.40;48.80;;;;;;5011676;28;19936;-69
2022/07/05 01:16:54;;;;;;;;;;;28.40;48.40;;;;;;5011714;28;20024;-69
2022/07/05 01:19:20;;;;;;;;;;;28.40;48.20;;;;;;5011559;28;19914;-69
2022/07/05 01:21:47;;;;;;;;;;;28.50;48.20;;;;;;5011635;28;20016;-70
2022/07/05 01:24:13;;;;;;;;;;;28.40;48.70;;;;;;5011478;28;19918;-69
2022/07/05 01:26:39;;;;;;;;;;;28.40;48.60;;;;;;5011526;28;19926;-68
2022/07/05 01:29:06;;;;;;;;;;;28.40;48.20;;;;;;5011573;28;19914;-66
2022/07/05 01:31:31;;;;;;;;;;;28.40;48.00;;;;;;5014595;28;20292;-68
2022/07/05 01:33:57;;;;;;;;;;;28.40;48.60;;;;;;5015059;28;20279;-70
2022/07/05 01:36:23;;;;;;;;;;;28.30;48.90;;;;;;5014844;28;19914;-68
2022/07/05 01:38:49;;;;;;;;;;;28.30;49.10;;;;;;5014988;28;19916;-70
2022/07/05 01:41:15;;;;;;;;;;;28.20;49.10;;;;;;5014848;28;19991;-69
2022/07/05 01:43:40;;;;;;;;;;;28.10;48.30;;;;;;5014799;28;19917;-68
2022/07/05 01:46:08;;;;;;;;;;;28.00;48.80;;;;;;5014789;28;20372;-69
2022/07/05 01:48:35;;;;;;;;;;;27.70;50.10;;;;;;5014603;28;19910;-69
2022/07/05 01:51:03;;;;;;;;;;;27.40;51.00;;;;;;5014812;28;19913;-68
2022/07/05 01:53:30;;;;;;;;;;;27.40;51.90;;;;;;5014526;28;19909;-69
2022/07/05 01:55:57;;;;;;;;;;;27.50;51.80;;;;;;5014710;28;19913;-69
2022/07/05 01:58:23;;;;;;;;;;;27.60;52.00;;;;;;5014529;28;19918;-67
2022/07/05 02:00:50;;;;;;;;;;;27.70;52.40;;;;;;5014640;28;19917;-69
2022/07/05 02:03:16;;;;;;;;;;;27.70;52.40;;;;;;5014584;28;19913;-69
2022/07/05 02:05:43;;;;;;;;;;;27.80;52.40;;;;;;5014326;28;20274;-69
2022/07/05 02:08:09;;;;;;;;;;;27.80;52.70;;;;;;5014153;28;19979;-69
2022/07/05 02:10:35;;;;;;;;;;;27.80;53.00;;;;;;5014443;28;19956;-71
2022/07/05 02:13:01;;;;;;;;;;;27.70;53.70;;;;;;5014614;28;20258;-68
2022/07/05 02:15:29;;;;;;;;;;;27.70;54.10;;;;;;5014017;28;20373;-70
2022/07/05 02:17:54;;;;;;;;;;;27.70;54.40;;;;;;5014606;28;19914;-68
2022/07/05 02:20:20;;;;;;;;;;;27.60;54.40;;;;;;5014259;28;19925;-68
2022/07/05 02:22:45;;;;;;;;;;;27.50;54.40;;;;;;5014090;28;19967;-68
2022/07/05 02:25:11;;;;;;;;;;;27.50;54.40;;;;;;5013905;28;20385;-71
2022/07/05 02:27:37;;;;;;;;;;;27.50;54.20;;;;;;5014241;28;20262;-71
2022/07/05 02:30:02;;;;;;;;;;;27.50;54.50;;;;;;5013870;28;19921;-69
2022/07/05 02:32:30;;;;;;;;;;;27.40;54.80;;;;;;5013924;28;20392;-68
2022/07/05 02:34:55;;;;;;;;;;;27.30;55.10;;;;;;5013564;28;20373;-67
2022/07/05 02:37:21;;;;;;;;;;;27.20;55.30;;;;;;5013821;28;19952;-69
2022/07/05 02:39:47;;;;;;;;;;;27.10;55.40;;;;;;5013782;28;19913;-68
2022/07/05 02:42:12;;;;;;;;;;;27.00;55.60;;;;;;5013151;28;20020;-68
2022/07/05 02:44:38;;;;;;;;;;;27.10;55.60;;;;;;5013649;28;19917;-66
2022/07/05 02:47:03;;;;;;;;;;;27.10;55.60;;;;;;5013632;28;20473;-68
2022/07/05 02:49:29;;;;;;;;;;;27.10;55.70;;;;;;5013791;28;20316;-66
2022/07/05 02:51:54;;;;;;;;;;;26.90;55.80;;;;;;5013472;28;19916;-70
2022/07/05 02:54:20;;;;;;;;;;;26.80;56.10;;;;;;5013519;28;20429;-71
2022/07/05 02:56:45;;;;;;;;;;;26.80;56.30;;;;;;5013559;28;20048;-67
2022/07/05 02:59:11;;;;;;;;;;;26.70;56.50;;;;;;5013640;28;19917;-66
2022/07/05 03:01:36;;;;;;;;;;;26.80;56.80;;;;;;5013928;28;19913;-68
2022/07/05 03:04:02;;;;;;;;;;;26.60;57.00;;;;;;5013171;28;19914;-68
2022/07/05 03:06:28;;;;;;;;;;;26.30;57.60;;;;;;5013603;28;19956;-67
2022/07/05 03:08:53;;;;;;;;;;;26.30;58.00;;;;;;5013084;28;19925;-68
2022/07/05 03:11:20;;;;;;;;;;;26.10;58.50;;;;;;5013224;28;19948;-65
2022/07/05 03:13:47;;;;;;;;;;;26.00;58.50;;;;;;5013066;28;19924;-71
2022/07/05 03:16:13;;;;;;;;;;;26.00;58.60;;;;;;5013057;28;19919;-69
2022/07/05 03:18:39;;;;;;;;;;;26.00;58.40;;;;;;5013127;28;20348;-70
2022/07/05 03:21:04;;;;;;;;;;;26.20;58.00;;;;;;5012976;28;19937;-71
2022/07/05 03:23:30;;;;;;;;;;;26.30;57.80;;;;;;5013368;28;19914;-68
2022/07/05 03:25:55;;;;;;;;;;;26.30;57.70;;;;;;5013044;28;19910;-66
2022/07/05 03:28:21;;;;;;;;;;;26.30;57.70;;;;;;5012777;28;19923;-70
2022/07/05 03:30:46;;;;;;;;;;;26.10;58.10;;;;;;5013070;28;19949;-70
2022/07/05 03:33:12;;;;;;;;;;;26.10;58.30;;;;;;5012829;28;20377;-68
2022/07/05 03:35:38;;;;;;;;;;;25.90;58.60;;;;;;5012749;28;19922;-69
2022/07/05 03:38:03;;;;;;;;;;;25.90;59.00;;;;;;5012701;28;20354;-68
2022/07/05 03:40:29;;;;;;;;;;;25.90;58.90;;;;;;5012804;28;19909;-63
2022/07/05 03:42:54;;;;;;;;;;;25.90;58.90;;;;;;5012754;28;20373;-66
2022/07/05 03:45:20;;;;;;;;;;;25.90;58.80;;;;;;5012533;28;20060;-67
2022/07/05 03:47:45;;;;;;;;;;;25.90;58.70;;;;;;5012659;28;19917;-65
2022/07/05 03:50:11;;;;;;;;;;;25.90;58.70;;;;;;5012604;28;19918;-69
2022/07/05 03:52:36;;;;;;;;;;;25.90;58.50;;;;;;5012599;28;19953;-70
2022/07/05 03:55:02;;;;;;;;;;;25.90;58.50;;;;;;5012251;28;20361;-69
2022/07/05 03:57:28;;;;;;;;;;;26.00;58.50;;;;;;5012640;28;19913;-70
2022/07/05 03:59:53;;;;;;;;;;;25.90;59.00;;;;;;5012395;28;20276;-69
2022/07/05 04:02:19;;;;;;;;;;;25.90;58.60;;;;;;5012320;28;19913;-66
2022/07/05 04:04:44;;;;;;;;;;;25.90;58.50;;;;;;5012211;28;19920;-69
2022/07/05 04:07:10;;;;;;;;;;;25.80;58.70;;;;;;5012331;28;19909;-69
2022/07/05 04:09:35;;;;;;;;;;;25.90;58.90;;;;;;5012212;28;20019;-69
2022/07/05 04:12:01;;;;;;;;;;;25.90;58.80;;;;;;5012254;28;19968;-69
2022/07/05 04:14:27;;;;;;;;;;;26.00;58.80;;;;;;5012211;28;19980;-69
2022/07/05 04:16:52;;;;;;;;;;;26.00;59.00;;;;;;5012394;28;19917;-69
2022/07/05 04:19:18;;;;;;;;;;;25.80;59.50;;;;;;5012066;28;19951;-69
2022/07/05 04:21:43;;;;;;;;;;;25.70;59.80;;;;;;5013041;28;19910;-67
2022/07/05 04:24:10;;;;;;;;;;;25.60;60.50;;;;;;5012551;28;19913;-68
2022/07/05 04:26:36;;;;;;;;;;;25.70;60.30;;;;;;5012548;28;19920;-67
2022/07/05 04:29:01;;;;;;;;;;;25.70;60.20;;;;;;5012542;28;19914;-70
2022/07/05 04:31:27;;;;;;;;;;;25.70;60.30;;;;;;5012186;28;19910;-68
2022/07/05 04:33:52;;;;;;;;;;;25.70;60.30;;;;;;5012144;28;19925;-70
2022/07/05 04:36:18;;;;;;;;;;;25.70;60.20;;;;;;5012005;28;19914;-69
2022/07/05 04:38:44;;;;;;;;;;;25.70;60.30;;;;;;5012208;28;20301;-68
2022/07/05 04:41:09;;;;;;;;;;;25.70;60.30;;;;;;5012072;28;19920;-67
2022/07/05 04:43:35;;;;;;;;;;;25.70;60.40;;;;;;5012036;28;19916;-69
2022/07/05 04:46:00;;;;;;;;;;;25.70;60.90;;;;;;5012135;28;20257;-71
2022/07/05 04:48:26;;;;;;;;;;;25.60;60.40;;;;;;5011798;28;20000;-67
2022/07/05 04:50:51;;;;;;;;;;;25.60;60.50;;;;;;5012070;28;20270;-66
2022/07/05 04:53:17;;;;;;;;;;;25.70;60.10;;;;;;5012021;28;19964;-67
2022/07/05 04:55:42;;;;;;;;;;;25.70;59.90;;;;;;5011938;28;20341;-69
2022/07/05 04:58:08;;;;;;;;;;;25.80;59.90;;;;;;5011856;28;19972;-68
2022/07/05 05:00:34;;;;;;;;;;;25.80;60.10;;;;;;5011924;28;19913;-68
2022/07/05 05:02:59;;;;;;;;;;;25.90;60.10;;;;;;5011772;28;19913;-69
2022/07/05 05:05:25;;;;;;;;;;;25.80;60.20;;;;;;5013482;28;20269;-70
2022/07/05 05:07:51;;;;;;;;;;;25.80;60.30;;;;;;5015382;28;19956;-68
2022/07/05 05:10:16;;;;;;;;;;;25.80;60.00;;;;;;5015467;28;20362;-68
2022/07/05 05:12:42;;;;;;;;;;;25.90;59.40;;;;;;5015701;28;19910;-69
2022/07/05 05:15:10;;;;;;;;;;;25.90;59.40;;;;;;5015249;28;19918;-69
2022/07/05 05:17:37;;;;;;;;;;;25.70;59.50;;;;;;5015278;28;19914;-69
2022/07/05 05:20:04;;;;;;;;;;;25.70;59.70;;;;;;5015274;28;19968;-67
2022/07/05 05:22:29;;;;;;;;;;;25.60;60.40;;;;;;5015186;28;20338;-65
2022/07/05 05:24:55;;;;;;;;;;;25.70;60.50;;;;;;5015158;28;19952;-69
2022/07/05 05:27:20;;;;;;;;;;;25.60;60.80;;;;;;5015116;28;20408;-71
2022/07/05 05:29:46;;;;;;;;;;;25.70;60.90;;;;;;5015208;28;20246;-68
2022/07/05 05:32:11;;;;;;;;;;;25.80;60.40;;;;;;5015062;28;19913;-68
2022/07/05 05:34:37;;;;;;;;;;;25.90;59.80;;;;;;5014773;28;20369;-65
2022/07/05 05:37:03;;;;;;;;;;;25.90;59.80;;;;;;5015094;28;20382;-66
2022/07/05 05:39:28;;;;;;;;;;;25.90;59.50;;;;;;5015069;28;19913;-62
2022/07/05 05:41:54;;;;;;;;;;;26.10;59.00;;;;;;5014953;28;19910;-65
2022/07/05 05:44:19;;;;;;;;;;;26.60;57.80;;;;;;5014789;28;19920;-63
2022/07/05 05:46:45;;;;;;;;;;;27.10;56.80;;;;;;5014663;28;20515;-63
2022/07/05 05:49:10;;;;;;;;;;;27.50;55.60;;;;;;5015103;28;19914;-63
2022/07/05 05:51:36;;;;;;;;;;;27.90;54.80;;;;;;5014768;28;19913;-65
2022/07/05 05:54:01;;;;;;;;;;;28.30;53.90;;;;;;5014774;28;19924;-63
2022/07/05 05:56:27;;;;;;;;;;;28.50;53.20;;;;;;5014573;28;19910;-66
2022/07/05 05:58:53;;;;;;;;;;;28.90;52.30;;;;;;5014666;28;19925;-65
2022/07/05 06:01:18;;;;;;;;;;;29.00;51.70;;;;;;5014565;28;20008;-64
2022/07/05 06:03:44;;;;;;;;;;;29.10;51.50;;;;;;5014597;28;19916;-65
2022/07/05 06:06:09;;;;;;;;;;;29.30;51.20;;;;;;5014439;28;19917;-65
2022/07/05 06:08:35;;;;;;;;;;;29.50;50.90;;;;;;5014388;28;19926;-64
2022/07/05 06:11:04;;;;;;;;;;;29.50;50.60;;;;;;5014411;28;19917;-64
2022/07/05 06:13:29;;;;;;;;;;;29.50;50.30;;;;;;5013056;28;19917;-60
2022/07/05 06:15:55;;;;;;;;;;;29.50;50.40;;;;;;5013636;28;19916;-73
2022/07/05 06:18:22;;;;;;;;;;;29.50;50.30;;;;;;5014231;28;19910;-74
2022/07/05 06:20:47;;;;;;;;;;;29.70;49.70;;;;;;5014623;28;20008;-72
2022/07/05 06:23:13;;;;;;;;;;;29.90;49.00;;;;;;5014241;28;19959;-74
2022/07/05 06:25:39;;;;;;;;;;;30.00;48.50;;;;;;5014320;28;20390;-73
2022/07/05 06:28:07;;;;;;;;;;;30.20;48.30;;;;;;5012772;28;19956;-68
2022/07/05 06:30:33;;;;;;;;;;;30.30;48.10;;;;;;4994054;28;20012;-71
2022/07/05 06:32:59;;;;;;;;;;;30.40;47.60;;;;;;4994182;28;19965;-71
2022/07/05 06:35:25;;;;;;;;;;;30.50;47.40;;;;;;4994785;28;19922;-76
2022/07/05 06:38:09;;;;;;;;;;;30.40;47.50;;;;;;4998499;28;19973;-69
2022/07/05 06:40:35;;;;;;;;;;;30.40;47.20;;;;;;4994315;28;19937;-73
2022/07/05 06:43:08;;;;;;;;;;;30.50;47.30;;;;;;5009157;28;20000;-59
2022/07/05 06:45:34;;;;;;;;;;;30.60;47.00;;;;;;4997599;28;19918;-76
2022/07/05 06:48:04;;;;;;;;;;;30.70;47.30;;;;;;4994120;28;19920;-59
2022/07/05 06:50:31;;;;;;;;;;;30.90;46.50;;;;;;4992444;28;19913;-61
2022/07/05 06:52:57;;;;;;;;;;;31.00;46.20;;;;;;4992765;28;19965;-70
2022/07/05 06:55:23;;;;;;;;;;;31.20;46.00;;;;;;4993761;28;19926;-72
2022/07/05 06:57:48;;;;;;;;;;;31.30;45.00;;;;;;4996307;28;20000;-68
2022/07/05 07:00:15;;;;;;;;;;;31.30;44.90;;;;;;4993515;28;20021;-66
2022/07/05 07:02:40;;;;;;;;;;;31.30;44.90;;;;;;4993619;28;19922;-67
2022/07/05 07:05:07;;;;;;;;;;;31.30;44.80;;;;;;4993565;28;19910;-66
2022/07/05 07:10:16;;;;;;;;;;;31.50;44.30;;;;;;4994257;28;19957;-69
2022/07/05 07:12:42;;;;;;;;;;;31.50;43.70;;;;;;4993655;28;20409;-65
2022/07/05 07:15:08;;;;;;;;;;;31.60;43.80;;;;;;4997945;28;19921;-68
2022/07/05 07:17:33;;;;;;;;;;;31.70;43.50;;;;;;5000305;28;20005;-66
2022/07/05 07:19:59;;;;;;;;;;;31.90;43.00;;;;;;4999948;28;19916;-67
2022/07/05 07:22:24;;;;;;;;;;;32.00;43.00;;;;;;4994356;28;19922;-62
2022/07/05 07:24:50;;;;;;;;;;;32.10;43.10;;;;;;5001912;28;20442;-60
2022/07/05 07:27:16;;;;;;;;;;;32.20;43.00;;;;;;5001771;28;19914;-63
2022/07/05 07:29:41;;;;;;;;;;;32.00;42.70;;;;;;5003125;28;19969;-61
2022/07/05 07:32:07;;;;;;;;;;;32.00;43.20;;;;;;5004720;28;19910;-61
2022/07/05 07:34:33;;;;;;;;;;;32.20;43.00;;;;;;5002435;28;20113;-63
2022/07/05 07:36:59;;;;;;;;;;;32.20;42.50;;;;;;5000727;28;20037;-64
2022/07/05 07:39:25;;;;;;;;;;;32.20;42.20;;;;;;4999934;28;20338;-62
2022/07/05 07:41:50;;;;;;;;;;;32.40;42.20;;;;;;4998391;28;19918;-62
2022/07/05 07:44:16;;;;;;;;;;;32.30;41.90;;;;;;4997273;28;20285;-64
2022/07/05 07:46:42;;;;;;;;;;;32.20;41.60;;;;;;4999283;28;20420;-63
2022/07/05 07:49:08;;;;;;;;;;;32.10;42.10;;;;;;4999468;28;19910;-64
2022/07/05 07:51:33;;;;;;;;;;;32.20;41.70;;;;;;4997910;28;20321;-63
2022/07/05 07:53:59;;;;;;;;;;;32.10;41.80;;;;;;4997978;28;19922;-63
2022/07/05 07:56:25;;;;;;;;;;;32.20;41.80;;;;;;4997677;28;19960;-62
2022/07/05 07:58:51;;;;;;;;;;;32.40;41.20;;;;;;4999796;28;19941;-62
2022/07/05 08:01:16;;;;;;;;;;;32.60;41.00;;;;;;4998897;28;19909;-65
2022/07/05 08:03:42;;;;;;;;;;;32.90;40.90;;;;;;4998659;28;19960;-64
2022/07/05 08:06:08;;;;;;;;;;;32.90;39.90;;;;;;4998254;28;19914;-64
2022/07/05 08:08:34;;;;;;;;;;;32.80;40.00;;;;;;5000189;28;19928;-61
2022/07/05 08:11:00;;;;;;;;;;;32.80;39.70;;;;;;4999089;28;20043;-64
2022/07/05 08:13:25;;;;;;;;;;;33.00;40.20;;;;;;4998800;28;20000;-61
2022/07/05 08:15:51;;;;;;;;;;;33.10;40.30;;;;;;4999126;28;19916;-63
2022/07/05 08:23:45;;;;;;;;;;;33.50;38.10;;;;;;5001084;28;20285;-65
2022/07/05 08:26:11;;;;;;;;;;;33.50;38.40;;;;;;4998989;28;19917;-61
2022/07/05 08:28:36;;;;;;;;;;;33.60;37.50;;;;;;5001385;28;20004;-63
2022/07/05 08:31:02;;;;;;;;;;;33.80;37.40;;;;;;4996324;28;20281;-62
2022/07/05 08:33:27;;;;;;;;;;;33.80;36.30;;;;;;4992067;28;19913;-62
2022/07/05 08:35:53;;;;;;;;;;;33.90;36.00;;;;;;4991999;28;19933;-63
2022/07/05 08:38:18;;;;;;;;;;;34.00;35.00;;;;;;4992028;28;19969;-62
2022/07/05 08:40:50;;;;;;;;;;;34.10;34.50;;;;;;4996934;28;19956;-62
2022/07/05 08:43:15;;;;;;;;;;;34.10;33.80;;;;;;4996122;28;19914;-60
2022/07/05 08:45:44;;;;;;;;;;;34.10;33.80;;;;;;4998388;28;20377;-63
2022/07/05 08:48:10;;;;;;;;;;;34.20;34.50;;;;;;5000882;28;19917;-64
2022/07/05 08:50:38;;;;;;;;;;;34.20;34.40;;;;;;4996074;28;19932;-62
2022/07/05 08:53:04;;;;;;;;;;;34.30;34.50;;;;;;5005824;28;19969;-62
2022/07/05 08:55:31;;;;;;;;;;;34.50;34.30;;;;;;5013869;28;20434;-61
2022/07/05 08:57:57;;;;;;;;;;;34.30;33.80;;;;;;5014097;28;20011;-61
2022/07/05 09:00:22;;;;;;;;;;;34.30;33.60;;;;;;5013997;28;20362;-62
2022/07/05 09:02:49;;;;;;;;;;;34.10;34.50;;;;;;5013479;28;19909;-61
2022/07/05 09:05:15;;;;;;;;;;;34.10;35.20;;;;;;5005114;28;19917;-60
2022/07/05 09:07:44;;;;;;;;;;;34.00;35.40;;;;;;4995981;28;19918;-63
2022/07/05 09:10:11;;;;;;;;;;;34.00;34.30;;;;;;4995509;28;19985;-61
2022/07/05 09:12:37;;;;;;;;;;;33.80;34.80;;;;;;4995467;28;20012;-61
2022/07/05 09:15:04;;;;;;;;;;;33.50;35.30;;;;;;5002734;28;19929;-63
2022/07/05 09:17:30;;;;;;;;;;;33.30;35.00;;;;;;5015373;28;19932;-64
2022/07/05 09:20:08;;;;;;;;;;;33.20;34.90;;;;;;5014406;28;19909;-66
2022/07/05 09:22:52;;;;;;;;;;;33.10;35.20;;;;;;5012251;28;19981;-66
2022/07/05 09:25:28;;;;;;;;;;;33.00;35.20;;;;;;5011784;28;19921;-65
2022/07/05 09:27:57;;;;;;;;;;;32.80;35.00;;;;;;5014440;28;19910;-62
2022/07/05 09:30:24;;;;;;;;;;;32.60;35.00;;;;;;5014109;28;19917;-64
2022/07/05 09:33:06;;;;;;;;;;;32.70;34.60;;;;;;5014383;28;19909;-64
2022/07/05 09:35:33;;;;;;;;;;;32.60;35.10;;;;;;5014116;28;20385;-65
2022/07/05 09:37:59;;;;;;;;;;;32.60;35.50;;;;;;5013958;28;19957;-63
2022/07/05 09:40:24;;;;;;;;;;;32.50;35.60;;;;;;5012301;28;19959;-63
2022/07/05 09:42:50;;;;;;;;;;;32.60;36.60;;;;;;5014130;28;19913;-65
2022/07/05 09:45:23;;;;;;;;;;;32.60;35.50;;;;;;5014173;28;19968;-63
2022/07/05 09:47:49;;;;;;;;;;;32.50;35.70;;;;;;5012390;28;20369;-63
2022/07/05 09:50:14;;;;;;;;;;;32.30;36.00;;;;;;5011732;28;19960;-64
2022/07/05 09:52:40;;;;;;;;;;;32.30;36.30;;;;;;5013534;28;19968;-64
2022/07/05 09:55:16;;;;;;;;;;;32.30;36.20;;;;;;5013944;28;20401;-66
2022/07/05 09:57:42;;;;;;;;;;;32.20;35.40;;;;;;5011797;28;19916;-64
2022/07/05 10:00:07;;;;;;;;;;;32.20;35.90;;;;;;5013698;28;19909;-68
2022/07/05 10:02:34;;;;;;;;;;;32.20;36.00;;;;;;5013181;28;19917;-63
2022/07/05 10:05:13;;;;;;;;;;;32.10;36.30;;;;;;5000200;28;19961;-66
2022/07/05 10:07:44;;;;;;;;;;;32.00;36.60;;;;;;4998244;28;19950;-64
2022/07/05 10:10:13;;;;;;;;;;;32.10;37.00;;;;;;4994641;28;19928;-62
2022/07/05 10:12:39;;;;;;;;;;;32.20;37.60;;;;;;5007472;28;19914;-62
2022/07/05 10:15:07;;;;;;;;;;;32.50;37.30;;;;;;5012384;28;19918;-64
2022/07/05 10:17:35;;;;;;;;;;;32.40;36.90;;;;;;5013873;28;19909;-64
2022/07/05 10:20:01;;;;;;;;;;;32.50;36.90;;;;;;5005649;28;19997;-63
2022/07/05 10:22:27;;;;;;;;;;;32.50;36.60;;;;;;4994609;28;19910;-64
2022/07/05 10:24:54;;;;;;;;;;;32.30;36.60;;;;;;4999470;28;19976;-65
2022/07/05 10:27:19;;;;;;;;;;;32.20;36.70;;;;;;5000774;28;19956;-61
2022/07/05 10:29:45;;;;;;;;;;;32.20;36.70;;;;;;5002843;28;19949;-64
2022/07/05 10:32:14;;;;;;;;;;;32.20;36.80;;;;;;5013726;28;19913;-65
2022/07/05 10:34:41;;;;;;;;;;;32.20;36.00;;;;;;5013582;28;19963;-64
2022/07/05 10:37:06;;;;;;;;;;;32.20;36.80;;;;;;5013912;28;19914;-64
2022/07/05 10:39:32;;;;;;;;;;;32.30;37.20;;;;;;5013731;28;19914;-64
2022/07/05 10:41:58;;;;;;;;;;;32.30;36.80;;;;;;5013613;28;19981;-63
2022/07/05 10:44:34;;;;;;;;;;;32.30;37.50;;;;;;5013223;28;19914;-62
2022/07/05 10:47:10;;;;;;;;;;;32.40;36.40;;;;;;5013461;28;19920;-64
2022/07/05 10:49:36;;;;;;;;;;;32.40;36.30;;;;;;5013355;28;19936;-64
2022/07/05 10:52:02;;;;;;;;;;;32.40;37.20;;;;;;5009695;28;19914;-65
2022/07/05 10:54:28;;;;;;;;;;;32.30;33.90;;;;;;5000279;28;19940;-63
2022/07/05 10:57:12;;;;;;;;;;;32.20;34.70;;;;;;5012704;28;20377;-62
2022/07/05 10:59:56;;;;;;;;;;;32.20;35.30;;;;;;5012915;28;19996;-63
2022/07/05 11:02:22;;;;;;;;;;;32.40;34.60;;;;;;5012398;28;19918;-63
2022/07/05 11:04:54;;;;;;;;;;;32.50;34.80;;;;;;5012756;28;19913;-63
2022/07/05 11:07:40;;;;;;;;;;;32.50;34.30;;;;;;5012865;28;19944;-70
2022/07/05 11:10:06;;;;;;;;;;;32.50;34.40;;;;;;5012762;28;19928;-66
2022/07/05 11:12:36;;;;;;;;;;;32.60;33.60;;;;;;5012848;28;20598;-62
2022/07/05 11:15:10;;;;;;;;;;;32.60;33.80;;;;;;5010758;28;19940;-62
2022/07/05 11:17:36;;;;;;;;;;;32.60;32.80;;;;;;5012856;28;19914;-62
2022/07/05 11:20:10;;;;;;;;;;;32.60;32.20;;;;;;5009960;28;19944;-63
2022/07/05 11:22:37;;;;;;;;;;;32.50;31.80;;;;;;4993648;28;19941;-61
2022/07/05 11:25:03;;;;;;;;;;;32.70;32.10;;;;;;5008879;28;19917;-62
2022/07/05 11:27:29;;;;;;;;;;;32.60;32.30;;;;;;5012697;28;19920;-62
2022/07/05 11:29:56;;;;;;;;;;;32.80;32.20;;;;;;5012331;28;20274;-63
2022/07/05 11:32:23;;;;;;;;;;;32.80;32.30;;;;;;5005941;28;19917;-62
2022/07/05 11:34:50;;;;;;;;;;;32.70;31.10;;;;;;4993703;28;19933;-62
2022/07/05 11:37:34;;;;;;;;;;;32.70;31.90;;;;;;4999985;28;19945;-61
2022/07/05 11:40:14;;;;;;;;;;;32.60;30.90;;;;;;4998208;28;19917;-60
2022/07/05 11:42:46;;;;;;;;;;;32.50;31.80;;;;;;4998280;28;19913;-60
2022/07/05 11:45:12;;;;;;;;;;;32.50;32.00;;;;;;4997820;28;19917;-60
2022/07/05 11:47:38;;;;;;;;;;;32.40;31.60;;;;;;4997533;28;19926;-61
2022/07/05 11:50:04;;;;;;;;;;;32.70;31.80;;;;;;4994516;28;19920;-60
2022/07/05 11:52:33;;;;;;;;;;;32.60;30.90;;;;;;4999718;28;19945;-60
2022/07/05 11:55:26;;;;;;;;;;;32.80;30.60;;;;;;4995432;28;19961;-60
2022/07/05 11:57:52;;;;;;;;;;;32.80;30.20;;;;;;4989422;28;19918;-60
2022/07/05 12:00:31;;;;;;;;;;;32.90;30.50;;;;;;4995894;28;19992;-63
2022/07/05 12:02:57;;;;;;;;;;;33.10;30.30;;;;;;4997568;28;19958;-60
2022/07/05 12:05:23;;;;;;;;;;;33.10;30.60;;;;;;4997471;28;19917;-61
2022/07/05 12:07:50;;;;;;;;;;;33.20;30.50;;;;;;5011684;28;19914;-60
2022/07/05 12:13:03;;;;;;;;;;;33.40;30.50;;;;;;5011855;28;19916;-59
2022/07/05 12:15:29;;;;;;;;;;;33.30;30.00;;;;;;4999414;28;19917;-60
2022/07/05 12:17:55;;;;;;;;;;;33.20;29.90;;;;;;5007969;28;19956;-59
2022/07/05 12:20:22;;;;;;;;;;;33.20;30.00;;;;;;5006799;28;19913;-61
2022/07/05 12:22:48;;;;;;;;;;;33.30;30.00;;;;;;4998176;28;19922;-59
2022/07/05 12:25:15;;;;;;;;;;;33.30;30.10;;;;;;4999032;28;19914;-60
2022/07/05 12:27:42;;;;;;;;;;;33.50;29.80;;;;;;4996976;28;19910;-61
2022/07/05 12:30:09;;;;;;;;;;;33.70;29.90;;;;;;5001691;28;19920;-60
2022/07/05 12:32:55;;;;;;;;;;;33.80;29.60;;;;;;4999737;28;19914;-59
2022/07/05 12:35:26;;;;;;;;;;;33.80;29.50;;;;;;4989165;28;19924;-61
2022/07/05 12:37:52;;;;;;;;;;;33.70;29.70;;;;;;5011678;28;19913;-60
2022/07/05 12:40:21;;;;;;;;;;;33.60;29.70;;;;;;5011137;28;20278;-60
2022/07/05 12:42:46;;;;;;;;;;;33.60;29.50;;;;;;5011266;28;20385;-60
2022/07/05 12:45:13;;;;;;;;;;;33.70;29.70;;;;;;5011381;28;19961;-59
2022/07/05 12:47:50;;;;;;;;;;;33.70;29.70;;;;;;5001139;28;19914;-61
2022/07/05 12:50:15;;;;;;;;;;;33.60;29.30;;;;;;5007736;28;20413;-65
2022/07/05 12:52:56;;;;;;;;;;;33.70;29.30;;;;;;5002646;28;19949;-60
2022/07/05 12:58:05;;;;;;;;;;;33.80;29.00;;;;;;5011689;28;19936;-63
2022/07/05 13:00:31;;;;;;;;;;;33.70;29.40;;;;;;5011623;28;20353;-61
2022/07/05 13:02:57;;;;;;;;;;;33.70;29.20;;;;;;5011768;28;20012;-62
2022/07/05 13:05:23;;;;;;;;;;;33.80;29.70;;;;;;5011661;28;19916;-61
2022/07/05 13:07:51;;;;;;;;;;;34.00;28.90;;;;;;5011512;28;19913;-60
2022/07/05 13:10:19;;;;;;;;;;;34.10;28.90;;;;;;5011789;28;20297;-61
2022/07/05 13:12:46;;;;;;;;;;;34.00;28.20;;;;;;5011562;28;19971;-61
2022/07/05 13:15:12;;;;;;;;;;;33.90;28.10;;;;;;5011333;28;19921;-60
2022/07/05 13:17:37;;;;;;;;;;;34.00;29.10;;;;;;5011369;28;19992;-62
2022/07/05 13:20:03;;;;;;;;;;;33.90;29.50;;;;;;5010619;28;20424;-62
2022/07/05 13:22:29;;;;;;;;;;;34.00;29.50;;;;;;5010631;28;19972;-61
2022/07/05 13:24:54;;;;;;;;;;;33.90;29.30;;;;;;5010499;28;19910;-61
2022/07/05 13:27:20;;;;;;;;;;;33.90;29.50;;;;;;5013525;28;19956;-58
2022/07/05 13:29:48;;;;;;;;;;;34.10;29.90;;;;;;5015025;28;19969;-61
2022/07/05 13:32:15;;;;;;;;;;;33.90;30.00;;;;;;5015156;28;19929;-59
2022/07/05 13:34:41;;;;;;;;;;;34.00;30.80;;;;;;5014935;28;19917;-59
2022/07/05 13:37:07;;;;;;;;;;;34.00;31.30;;;;;;5015073;28;19916;-58
2022/07/05 13:39:32;;;;;;;;;;;33.80;31.80;;;;;;4999167;28;19924;-61
2022/07/05 13:41:58;;;;;;;;;;;33.60;32.70;;;;;;5004297;28;19921;-62
2022/07/05 13:44:24;;;;;;;;;;;33.40;33.20;;;;;;5014966;28;19920;-61
2022/07/05 13:46:49;;;;;;;;;;;33.30;33.50;;;;;;5014842;28;20365;-59
2022/07/05 13:49:15;;;;;;;;;;;33.20;33.90;;;;;;5014774;28;20258;-59
2022/07/05 13:51:41;;;;;;;;;;;33.30;34.00;;;;;;5014657;28;20357;-61
2022/07/05 13:54:07;;;;;;;;;;;33.30;33.90;;;;;;5013864;28;19984;-61
2022/07/05 13:56:32;;;;;;;;;;;33.30;33.60;;;;;;5013426;28;19921;-61
2022/07/05 13:58:58;;;;;;;;;;;33.40;33.70;;;;;;5013606;28;20026;-58
2022/07/05 14:01:26;;;;;;;;;;;33.40;33.30;;;;;;5011861;28;19953;-58
2022/07/05 14:03:52;;;;;;;;;;;33.40;34.00;;;;;;5013300;28;19920;-61
2022/07/05 14:06:18;;;;;;;;;;;33.20;35.50;;;;;;5013332;28;19917;-58
2022/07/05 14:08:44;;;;;;;;;;;32.50;36.90;;;;;;5013339;28;20024;-60
2022/07/05 14:11:09;;;;;;;;;;;32.20;37.70;;;;;;5007155;28;20336;-60
2022/07/05 14:13:35;;;;;;;;;;;32.20;38.30;;;;;;5013244;28;19967;-62
2022/07/05 14:16:01;;;;;;;;;;;32.30;37.70;;;;;;4996115;28;20068;-61
2022/07/05 14:18:26;;;;;;;;;;;32.50;37.90;;;;;;4996516;28;19914;-60
2022/07/05 14:20:52;;;;;;;;;;;32.70;37.40;;;;;;5002331;28;19922;-61
2022/07/05 14:23:18;;;;;;;;;;;32.80;37.60;;;;;;5007321;28;19910;-61
2022/07/05 14:25:43;;;;;;;;;;;33.00;37.50;;;;;;5006998;28;19997;-60
2022/07/05 14:28:09;;;;;;;;;;;33.20;37.20;;;;;;5000087;28;20012;-62